Time;durP1;ratioP1;P1;durP2;ratioP2;P2;SDS_P1;SDS_P2;PMS_P1;PMS_P2;Temp;Humidity;BMP_temperature;BMP_pressure;BME280_temperature;BME280_humidity;BME280_pressure;Samples;Min_cycle;Max_cycle;Signal;HPM_P1;HPM_P2
2022/06/19 00:02:46;;;;;;;9.48;1.00;;;22.60;94.40;;;;;;10215362;29;20075;-61
2022/06/19 00:07:47;;;;;;;8.82;1.23;;;22.60;94.60;;;;;;10216470;28;20106;-61
2022/06/19 00:12:49;;;;;;;11.82;1.63;;;22.50;94.40;;;;;;10214401;29;20107;-60
2022/06/19 00:17:51;;;;;;;7.22;1.27;;;22.50;94.70;;;;;;10215922;29;20052;-60
2022/06/19 00:22:53;;;;;;;10.95;1.30;;;22.50;95.10;;;;;;10211907;29;20395;-61
2022/06/19 00:27:55;;;;;;;9.77;1.48;;;22.30;95.20;;;;;;10213658;29;20105;-60
2022/06/19 00:32:58;;;;;;;4.72;1.45;;;22.40;95.50;;;;;;10208226;29;20682;-61
2022/06/19 00:38:00;;;;;;;3.28;0.95;;;22.20;96.70;;;;;;10215851;29;20063;-60
2022/06/19 00:43:02;;;;;;;8.45;1.38;;;22.10;97.20;;;;;;10215843;29;20074;-60
2022/06/19 00:48:09;;;;;;;11.20;1.45;;;22.00;97.40;;;;;;10214056;29;20475;-60
2022/06/19 00:53:16;;;;;;;9.55;1.55;;;21.90;97.50;;;;;;10216665;29;20111;-60
2022/06/19 00:58:27;;;;;;;4.80;1.17;;;21.90;97.40;;;;;;10215134;29;20067;-60
2022/06/19 01:03:48;;;;;;;9.73;1.00;;;21.90;97.50;;;;;;10217443;29;20110;-60
2022/06/19 01:08:51;;;;;;;5.65;1.38;;;21.80;98.50;;;;;;10210526;29;20055;-61
2022/06/19 01:13:53;;;;;;;9.45;1.75;;;21.80;98.80;;;;;;10213584;29;20166;-61
2022/06/19 01:18:54;;;;;;;12.80;2.53;;;21.70;99.40;;;;;;10218429;28;20055;-61
2022/06/19 01:24:02;;;;;;;8.48;1.20;;;21.50;99.80;;;;;;10209802;29;20450;-61
2022/06/19 01:29:04;;;;;;;12.88;1.60;;;21.40;99.90;;;;;;10216338;29;20089;-61
2022/06/19 01:34:27;;;;;;;5.32;1.45;;;21.20;99.90;;;;;;10210741;29;20490;-61
2022/06/19 01:39:34;;;;;;;6.82;0.98;;;21.10;99.90;;;;;;10214016;29;20047;-61
2022/06/19 01:44:38;;;;;;;5.97;1.10;;;21.00;99.90;;;;;;10214155;29;20047;-61
2022/06/19 01:49:44;;;;;;;3.30;0.88;;;20.90;99.90;;;;;;10209295;29;20079;-61
2022/06/19 01:54:49;;;;;;;;;;;20.90;99.90;;;;;;10212315;29;20111;-61
2022/06/19 01:59:52;;;;;;;11.57;1.67;;;20.90;99.90;;;;;;10212136;28;19930;-61
2022/06/19 02:04:55;;;;;;;11.75;1.27;;;20.70;99.90;;;;;;10209476;29;20090;-61
2022/06/19 02:10:00;;;;;;;6.25;1.20;;;20.60;99.90;;;;;;10210563;29;20099;-61
2022/06/19 02:15:07;;;;;;;10.07;1.13;;;20.60;99.90;;;;;;10209494;29;20514;-61
2022/06/19 02:20:10;;;;;;;11.75;1.90;;;20.50;99.90;;;;;;10208707;29;20083;-61
2022/06/19 02:25:12;;;;;;;17.23;2.40;;;20.40;99.90;;;;;;10208869;29;20114;-61
2022/06/19 02:30:14;;;;;;;9.65;1.20;;;20.40;99.90;;;;;;10209137;28;20122;-59
2022/06/19 02:35:24;;;;;;;4.47;1.30;;;20.30;99.90;;;;;;10207736;29;20051;-58
2022/06/19 02:40:41;;;;;;;4.13;1.00;;;20.40;99.90;;;;;;10208062;29;20507;-59
2022/06/19 02:45:43;;;;;;;;;;;20.30;99.90;;;;;;10208214;29;20051;-59
2022/06/19 02:50:44;;;;;;;7.57;1.38;;;20.20;99.90;;;;;;10205547;29;20472;-59
2022/06/19 02:55:47;;;;;;;9.18;1.35;;;20.20;99.90;;;;;;10207658;29;20115;-59
2022/06/19 03:00:51;;;;;;;7.90;1.48;;;20.20;99.90;;;;;;10215358;28;20438;-59
2022/06/19 03:05:53;;;;;;;10.20;1.50;;;20.20;99.90;;;;;;10177373;29;20542;-59
2022/06/19 03:10:55;;;;;;;6.07;1.35;;;20.20;99.90;;;;;;10207021;29;20075;-59
2022/06/19 03:16:06;;;;;;;11.02;1.73;;;20.10;99.90;;;;;;10208806;29;20067;-65
2022/06/19 03:21:08;;;;;;;5.80;1.13;;;20.10;99.90;;;;;;10211558;29;20056;-65
2022/06/19 03:26:10;;;;;;;10.25;1.10;;;20.00;99.90;;;;;;10211769;29;20123;-65
2022/06/19 03:31:22;;;;;;;11.20;1.75;;;20.00;99.90;;;;;;10208887;29;20114;-65
2022/06/19 03:36:24;;;;;;;8.75;1.35;;;19.80;99.90;;;;;;10207308;28;20142;-65
2022/06/19 03:41:26;;;;;;;14.05;1.27;;;19.90;99.90;;;;;;10199636;28;20075;-64
2022/06/19 03:46:28;;;;;;;5.72;1.42;;;19.90;99.90;;;;;;10202616;29;20122;-65
2022/06/19 03:51:30;;;;;;;4.65;1.15;;;19.90;99.90;;;;;;10215339;29;20075;-65
2022/06/19 03:56:33;;;;;;;13.95;1.95;;;20.00;99.90;;;;;;10212797;28;20056;-65
2022/06/19 04:01:37;;;;;;;6.57;1.10;;;19.90;99.90;;;;;;10216062;29;20060;-65
2022/06/19 04:06:42;;;;;;;10.68;1.60;;;19.90;99.90;;;;;;10219505;28;20455;-65
2022/06/19 04:11:44;;;;;;;9.10;1.50;;;19.90;99.90;;;;;;10217412;29;20047;-62
2022/06/19 04:16:45;;;;;;;9.30;1.40;;;19.90;99.90;;;;;;10213467;29;20062;-62
2022/06/19 04:21:49;;;;;;;9.55;1.35;;;20.00;99.90;;;;;;10214924;29;20139;-62
2022/06/19 04:26:50;;;;;;;6.53;1.05;;;20.00;99.90;;;;;;10215325;29;20059;-62
2022/06/19 04:31:55;;;;;;;5.35;1.38;;;20.10;99.90;;;;;;10207126;29;20050;-62
2022/06/19 04:36:57;;;;;;;4.40;1.13;;;20.20;99.90;;;;;;10210672;29;20059;-65
2022/06/19 04:41:59;;;;;;;10.43;2.00;;;20.30;99.90;;;;;;10215161;28;20130;-64
2022/06/19 04:47:03;;;;;;;9.43;1.67;;;20.50;99.90;;;;;;10211112;28;20051;-64
2022/06/19 04:52:05;;;;;;;6.43;1.48;;;20.70;99.90;;;;;;10218261;29;20118;-64
2022/06/19 04:57:07;;;;;;;14.27;1.50;;;20.80;99.90;;;;;;10197607;28;20058;-64
2022/06/19 05:02:12;;;;;;;6.55;1.23;;;21.00;99.90;;;;;;10214016;28;20399;-64
2022/06/19 05:07:13;;;;;;;11.73;1.40;;;21.20;99.90;;;;;;10212272;28;20062;-64
2022/06/19 05:12:16;;;;;;;5.90;1.52;;;21.30;99.90;;;;;;10217605;29;20101;-64
2022/06/19 05:17:18;;;;;;;4.88;1.30;;;21.40;99.90;;;;;;10217555;29;20110;-64
2022/06/19 05:22:20;;;;;;;7.85;1.20;;;21.60;99.90;;;;;;10213959;29;20051;-64
2022/06/19 05:27:22;;;;;;;7.68;1.33;;;21.80;99.90;;;;;;10215014;29;20478;-64
2022/06/19 05:32:26;;;;;;;7.50;1.42;;;22.10;99.90;;;;;;10212780;29;20150;-65
2022/06/19 05:37:28;;;;;;;8.15;1.70;;;22.40;99.90;;;;;;10209383;29;20067;-65
2022/06/19 05:42:29;;;;;;;6.28;1.63;;;22.60;99.90;;;;;;10210167;29;20511;-65
2022/06/19 05:47:31;;;;;;;6.80;1.70;;;22.80;99.90;;;;;;10211755;29;20059;-65
2022/06/19 05:52:32;;;;;;;8.70;1.70;;;23.00;99.90;;;;;;10197977;29;20059;-65
2022/06/19 05:57:34;;;;;;;11.30;1.95;;;23.20;99.90;;;;;;10213613;29;20079;-65
2022/06/19 06:02:36;;;;;;;5.50;1.52;;;23.40;99.90;;;;;;10213051;29;20111;-66
2022/06/19 06:07:41;;;;;;;11.80;1.37;;;23.80;98.40;;;;;;10215790;28;20134;-65
2022/06/19 06:12:43;;;;;;;12.02;1.60;;;24.20;96.70;;;;;;10204100;29;20365;-64
2022/06/19 06:17:45;;;;;;;7.18;1.40;;;24.60;96.10;;;;;;10209911;29;20126;-64
2022/06/19 06:22:46;;;;;;;8.10;1.80;;;24.80;96.00;;;;;;10208700;29;20055;-65
2022/06/19 06:27:49;;;;;;;11.00;1.40;;;24.90;96.40;;;;;;10214049;29;20087;-65
2022/06/19 06:32:50;;;;;;;5.57;1.10;;;25.10;96.70;;;;;;10211272;29;20087;-65
2022/06/19 06:37:52;;;;;;;14.57;2.35;;;25.30;95.70;;;;;;10215910;29;20138;-65
2022/06/19 06:42:54;;;;;;;7.07;1.38;;;25.50;94.90;;;;;;10195374;29;20560;-65
2022/06/19 06:47:56;;;;;;;3.92;1.25;;;25.80;94.00;;;;;;10210849;29;20047;-66
2022/06/19 06:52:57;;;;;;;14.82;1.90;;;26.00;93.70;;;;;;10213585;29;20051;-65
2022/06/19 06:57:59;;;;;;;7.10;1.40;;;26.20;92.90;;;;;;10198472;28;20054;-65
2022/06/19 07:03:01;;;;;;;5.50;1.67;;;26.40;92.00;;;;;;10212373;29;20051;-65
2022/06/19 07:08:03;;;;;;;11.18;1.65;;;26.70;91.60;;;;;;10205131;29;20570;-65
2022/06/19 07:13:04;;;;;;;9.63;1.15;;;27.00;91.30;;;;;;10210877;29;20055;-65
2022/06/19 07:18:06;;;;;;;9.30;2.33;;;27.20;90.70;;;;;;10211535;29;20122;-64
2022/06/19 07:23:08;;;;;;;7.00;2.33;;;27.50;90.20;;;;;;10217808;29;20048;-64
2022/06/19 07:28:14;;;;;;;6.78;2.28;;;27.60;89.40;;;;;;10213192;29;20052;-65
2022/06/19 07:33:16;;;;;;;7.57;2.22;;;27.80;88.30;;;;;;10209536;29;20047;-63
2022/06/19 07:38:18;;;;;;;8.52;2.30;;;28.00;87.50;;;;;;10217501;29;20073;-63
2022/06/19 07:43:19;;;;;;;10.52;2.83;;;28.20;87.40;;;;;;10216407;29;20055;-64
2022/06/19 07:53:41;;;;;;;13.60;2.45;;;28.50;86.30;;;;;;10215552;29;20058;-64
2022/06/19 07:58:43;;;;;;;5.82;2.70;;;28.60;84.80;;;;;;10211554;28;20091;-64
2022/06/19 08:03:46;;;;;;;7.63;2.35;;;28.70;84.60;;;;;;10217807;28;20055;-65
2022/06/19 08:08:47;;;;;;;10.57;2.67;;;28.90;84.40;;;;;;10212628;29;20059;-64
2022/06/19 08:13:49;;;;;;;8.75;2.70;;;29.00;84.00;;;;;;10217071;29;20047;-65
2022/06/19 08:18:51;;;;;;;6.60;2.35;;;29.20;83.60;;;;;;10215730;29;20051;-63
2022/06/19 08:23:52;;;;;;;7.85;3.45;;;29.30;83.20;;;;;;10211418;29;20059;-63
2022/06/19 08:28:59;;;;;;;7.70;3.08;;;29.60;82.20;;;;;;10204696;28;20511;-64
2022/06/19 08:34:01;;;;;;;5.40;2.38;;;30.00;82.10;;;;;;10211926;29;20491;-65
2022/06/19 08:39:08;;;;;;;7.03;2.63;;;30.20;80.60;;;;;;10210856;29;20068;-65
2022/06/19 08:44:30;;;;;;;7.57;2.58;;;30.30;78.80;;;;;;10199556;28;20169;-67
2022/06/19 08:50:07;;;;;;;4.38;2.30;;;30.50;77.90;;;;;;10213581;29;20558;-66
2022/06/19 08:55:50;;;;;;;5.53;2.55;;;30.80;77.50;;;;;;10211475;29;20062;-65
2022/06/19 09:01:19;;;;;;;5.22;2.65;;;31.00;76.80;;;;;;10215574;28;20063;-66
2022/06/19 09:06:33;;;;;;;8.75;2.45;;;31.20;75.50;;;;;;10216518;28;20496;-66
2022/06/19 09:12:10;;;;;;;5.68;2.40;;;31.40;72.40;;;;;;10221460;28;20052;-65
2022/06/19 09:17:38;;;;;;;4.85;2.33;;;31.80;71.30;;;;;;10216942;28;20410;-65
2022/06/19 09:22:59;;;;;;;6.40;2.50;;;31.80;70.20;;;;;;10213995;28;20162;-66
2022/06/19 09:28:09;;;;;;;7.72;2.20;;;32.00;70.20;;;;;;10210215;28;20494;-65
2022/06/19 09:33:22;;;;;;;11.00;2.97;;;31.90;69.70;;;;;;10215012;29;20055;-62
2022/06/19 09:38:46;;;;;;;7.45;2.72;;;31.90;69.40;;;;;;10217482;29;20063;-65
2022/06/19 09:43:59;;;;;;;4.60;2.60;;;31.80;69.10;;;;;;10210162;29;20133;-65
2022/06/19 09:49:16;;;;;;;6.78;2.50;;;31.80;69.60;;;;;;10213175;29;20513;-65
2022/06/19 09:55:09;;;;;;;7.90;2.90;;;32.00;69.40;;;;;;10207881;29;20118;-64
2022/06/19 10:00:21;;;;;;;6.00;2.95;;;32.10;68.60;;;;;;10167408;29;20055;-64
2022/06/19 10:06:12;;;;;;;4.72;3.35;;;32.20;68.50;;;;;;10208876;29;20138;-64
2022/06/19 10:11:19;;;;;;;12.25;3.47;;;32.30;68.00;;;;;;10213358;29;20050;-64
2022/06/19 10:16:44;;;;;;;20.42;9.30;;;32.50;67.80;;;;;;10210459;29;20063;-64
2022/06/19 10:22:26;;;;;;;15.38;4.75;;;32.80;67.90;;;;;;10189875;29;20087;-64
2022/06/19 10:27:58;;;;;;;9.88;3.97;;;33.00;67.00;;;;;;10214260;28;20063;-64
2022/06/19 10:33:22;;;;;;;7.00;2.42;;;33.10;66.70;;;;;;10207640;29;20098;-64
2022/06/19 10:38:44;;;;;;;5.00;1.83;;;33.10;65.70;;;;;;10206937;29;20062;-64
2022/06/19 10:43:59;;;;;;;9.93;2.47;;;33.00;66.40;;;;;;10204372;29;20115;-64
2022/06/19 10:49:40;;;;;;;10.82;2.63;;;33.10;65.30;;;;;;10207357;29;20070;-64
2022/06/19 10:55:01;;;;;;;9.65;2.20;;;33.30;64.10;;;;;;10197683;29;20099;-65
2022/06/19 11:00:07;;;;;;;5.70;2.15;;;33.60;63.60;;;;;;10208869;29;20056;-65
2022/06/19 11:05:16;;;;;;;;;;;33.60;62.90;;;;;;10209681;28;20060;-66
2022/06/19 11:10:43;;;;;;;5.45;1.95;;;33.70;62.80;;;;;;10207333;29;19927;-65
2022/06/19 11:15:58;;;;;;;9.48;2.30;;;33.70;62.60;;;;;;10210836;29;20055;-64
2022/06/19 11:21:13;;;;;;;4.10;2.35;;;33.80;62.70;;;;;;10206714;29;20047;-65
2022/06/19 11:26:16;;;;;;;11.85;3.00;;;33.70;61.80;;;;;;10209585;29;20051;-65
2022/06/19 11:31:23;;;;;;;4.70;2.20;;;33.90;61.70;;;;;;10212235;29;20070;-64
2022/06/19 11:36:35;;;;;;;;;;;34.00;61.40;;;;;;10213208;29;20384;-64
2022/06/19 11:41:37;;;;;;;6.87;2.20;;;33.90;61.20;;;;;;10207184;29;19977;-64
2022/06/19 11:46:55;;;;;;;7.55;1.77;;;34.20;62.20;;;;;;10206068;29;20059;-64
2022/06/19 11:52:00;;;;;;;6.60;1.98;;;33.70;62.10;;;;;;10206870;29;20058;-65
2022/06/19 11:57:02;;;;;;;9.57;2.42;;;33.70;62.70;;;;;;10208341;29;20108;-64
2022/06/19 12:02:31;;;;;;;9.68;2.35;;;33.50;62.40;;;;;;10210039;28;20063;-64
2022/06/19 12:07:41;;;;;;;6.07;2.35;;;33.40;61.80;;;;;;10219889;28;20051;-65
2022/06/19 12:12:59;;;;;;;4.00;1.60;;;33.50;61.80;;;;;;10202708;29;20114;-63
2022/06/19 12:18:12;;;;;;;12.60;2.13;;;33.30;61.60;;;;;;10213704;29;20110;-63
2022/06/19 12:23:21;;;;;;;8.63;2.22;;;33.30;61.40;;;;;;10214048;29;20425;-63
2022/06/19 12:28:40;;;;;;;6.10;2.08;;;33.30;61.70;;;;;;10213885;29;20062;-63
2022/06/19 12:33:53;;;;;;;9.15;2.60;;;33.50;61.10;;;;;;10216889;29;20047;-64
2022/06/19 12:38:55;;;;;;;3.92;2.10;;;33.90;60.00;;;;;;10212754;29;20052;-61
2022/06/19 12:44:23;;;;;;;11.75;2.38;;;34.20;60.10;;;;;;10212602;28;20455;-61
2022/06/19 12:50:17;;;;;;;8.13;2.72;;;34.50;59.30;;;;;;10205796;29;20051;-61
2022/06/19 12:55:54;;;;;;;14.00;2.72;;;34.40;58.30;;;;;;10217591;29;20798;-60
2022/06/19 13:01:00;;;;;;;6.05;2.63;;;35.00;58.20;;;;;;10215139;28;20067;-60
2022/06/19 13:06:18;;;;;;;12.98;2.65;;;35.00;58.00;;;;;;10215146;28;20483;-60
2022/06/19 13:11:46;;;;;;;10.98;2.60;;;34.50;57.90;;;;;;10219546;28;20388;-60
2022/06/19 13:17:00;;;;;;;3.97;2.22;;;34.60;57.40;;;;;;10209025;29;20565;-61
2022/06/19 13:22:06;;;;;;;8.60;2.65;;;34.70;57.90;;;;;;10217203;29;20047;-61
2022/06/19 13:27:48;;;;;;;9.45;2.50;;;35.40;57.80;;;;;;10215108;29;20095;-61
2022/06/19 13:33:26;;;;;;;7.70;2.47;;;35.10;57.20;;;;;;10213561;29;20062;-60
2022/06/19 13:38:48;;;;;;;5.68;3.05;;;35.50;57.10;;;;;;10217543;29;20106;-61
2022/06/19 13:44:02;;;;;;;6.72;2.35;;;35.50;57.60;;;;;;10207113;29;20052;-60
2022/06/19 13:49:19;;;;;;;8.13;2.40;;;35.20;56.40;;;;;;10207285;29;20052;-60
2022/06/19 13:54:27;;;;;;;5.38;2.40;;;35.50;56.80;;;;;;10211567;29;20059;-60
2022/06/19 13:59:48;;;;;;;15.55;2.65;;;35.30;56.60;;;;;;10212211;28;20059;-62
2022/06/19 14:05:15;;;;;;;12.60;3.90;;;35.70;56.80;;;;;;10217292;28;20055;-62
2022/06/19 14:10:33;;;;;;;10.15;2.30;;;35.80;56.20;;;;;;10210503;28;20052;-62
2022/06/19 14:16:01;;;;;;;8.10;3.45;;;35.40;56.50;;;;;;10207236;29;20102;-65
2022/06/19 14:21:15;;;;;;;9.75;2.90;;;35.60;56.70;;;;;;10214822;29;20047;-65
2022/06/19 14:26:44;;;;;;;10.15;2.88;;;35.80;56.50;;;;;;10212025;28;20130;-65
2022/06/19 14:31:47;;;;;;;10.88;2.90;;;36.20;56.20;;;;;;10192736;29;20150;-65
2022/06/19 14:36:49;;;;;;;4.13;3.13;;;36.00;55.40;;;;;;10213002;29;20058;-65
2022/06/19 14:41:58;;;;;;;6.80;2.83;;;35.90;55.20;;;;;;10214958;29;20047;-65
2022/06/19 14:47:24;;;;;;;9.50;2.95;;;36.80;55.10;;;;;;10212990;29;20059;-65
2022/06/19 14:52:54;;;;;;;10.45;2.75;;;36.60;54.40;;;;;;10208936;29;20048;-65
2022/06/19 14:58:13;;;;;;;10.43;2.65;;;36.90;53.70;;;;;;10210164;28;20055;-65
2022/06/19 15:04:02;;;;;;;9.15;2.55;;;36.80;53.30;;;;;;10211853;29;20055;-65
2022/06/19 15:09:08;;;;;;;8.23;2.38;;;36.80;53.70;;;;;;10129412;29;20059;-65
2022/06/19 15:14:30;;;;;;;10.18;2.42;;;37.10;54.10;;;;;;10206124;29;20055;-65
2022/06/19 15:19:42;;;;;;;9.13;2.72;;;37.00;53.60;;;;;;10204962;29;20058;-67
2022/06/19 15:24:43;;;;;;;13.73;2.60;;;36.80;53.10;;;;;;10207071;29;20043;-65
2022/06/19 15:29:56;;;;;;;9.88;2.85;;;36.50;53.40;;;;;;10205905;29;20083;-65
2022/06/19 15:35:02;;;;;;;13.15;2.78;;;36.60;53.00;;;;;;10213190;29;20146;-66
2022/06/19 15:40:12;;;;;;;7.43;2.30;;;37.00;52.80;;;;;;10217074;29;20114;-65
2022/06/19 15:46:03;;;;;;;5.65;2.15;;;37.30;52.50;;;;;;10215258;29;20059;-64
2022/06/19 15:51:29;;;;;;;8.82;2.70;;;36.90;52.80;;;;;;10191134;29;20111;-65
2022/06/19 15:56:43;;;;;;;6.75;2.17;;;36.60;53.00;;;;;;10212159;29;20051;-64
2022/06/19 16:01:53;;;;;;;12.77;2.63;;;36.30;52.30;;;;;;10208141;29;20977;-62
2022/06/19 16:06:59;;;;;;;9.05;1.42;;;36.80;52.70;;;;;;10214955;28;20102;-60
2022/06/19 16:12:05;;;;;;;6.72;1.90;;;36.10;54.60;;;;;;10211506;28;20059;-62
2022/06/19 16:17:18;;;;;;;10.55;2.13;;;35.80;55.30;;;;;;10213762;29;20063;-63
2022/06/19 16:22:27;;;;;;;4.25;1.20;;;35.10;57.40;;;;;;10208807;29;20074;-63
2022/06/19 16:27:33;;;;;;;5.57;1.40;;;34.30;61.00;;;;;;10209137;29;20090;-63
2022/06/19 16:32:42;;;;;;;4.85;1.48;;;34.50;61.60;;;;;;10211869;29;20392;-62
2022/06/19 16:48:34;;;;;;;6.82;1.27;;;33.40;63.40;;;;;;10205625;29;19923;-63
2022/06/19 16:53:45;;;;;;;8.27;1.60;;;33.40;63.70;;;;;;10207435;29;20051;-62
2022/06/19 16:58:47;;;;;;;6.93;1.52;;;33.90;63.30;;;;;;10204052;28;20055;-63
2022/06/19 17:03:56;;;;;;;6.57;1.80;;;33.50;63.40;;;;;;10205829;28;20058;-64
2022/06/19 17:09:04;;;;;;;5.25;1.55;;;33.40;63.30;;;;;;10211432;28;20063;-64
2022/06/19 17:14:16;;;;;;;5.20;1.35;;;33.20;63.10;;;;;;10208864;29;20495;-64
2022/06/19 17:19:22;;;;;;;6.97;1.98;;;33.30;62.20;;;;;;10205516;29;20462;-64
2022/06/19 17:24:45;;;;;;;4.05;1.48;;;33.20;61.70;;;;;;10206140;29;20078;-65
2022/06/19 17:29:57;;;;;;;4.53;1.33;;;32.20;63.50;;;;;;10212884;28;20525;-65
2022/06/19 17:35:03;;;;;;;9.48;1.88;;;32.30;64.20;;;;;;10207665;29;20111;-64
2022/06/19 17:40:07;;;;;;;9.95;1.63;;;32.00;64.90;;;;;;10207896;29;20051;-65
2022/06/19 17:45:19;;;;;;;9.43;1.70;;;31.60;65.30;;;;;;10210908;28;20112;-64
2022/06/19 17:50:40;;;;;;;4.30;1.65;;;31.10;66.50;;;;;;10204304;29;20059;-65
2022/06/19 17:55:42;;;;;;;6.90;1.83;;;31.00;67.20;;;;;;10203797;29;20060;-63
2022/06/19 18:01:05;;;;;;;4.13;1.27;;;30.70;67.60;;;;;;10211851;28;20122;-64
2022/06/19 18:06:08;;;;;;;8.05;1.88;;;30.30;68.30;;;;;;10207556;28;20054;-64
2022/06/19 18:11:34;;;;;;;6.38;1.60;;;30.40;68.90;;;;;;10208368;28;20043;-64
2022/06/19 18:21:57;;;;;;;6.68;1.48;;;29.70;69.50;;;;;;10206483;29;20055;-64
2022/06/19 18:27:10;;;;;;;4.78;1.60;;;29.10;70.10;;;;;;10196628;29;20055;-66
2022/06/19 18:32:13;;;;;;;3.08;1.30;;;28.80;70.70;;;;;;10202590;29;20058;-65
2022/06/19 18:37:18;;;;;;;5.25;1.55;;;28.60;71.90;;;;;;10205018;29;20063;-66
2022/06/19 18:42:21;;;;;;;5.80;1.13;;;28.50;72.50;;;;;;10207365;29;20058;-65
2022/06/19 18:47:29;;;;;;;5.45;1.20;;;28.20;73.20;;;;;;10204187;29;20070;-65
2022/06/19 18:52:34;;;;;;;7.82;1.45;;;28.00;73.80;;;;;;10206772;29;20507;-65
2022/06/19 18:57:38;;;;;;;5.72;1.10;;;27.90;74.70;;;;;;10201767;28;20130;-67
2022/06/19 19:02:42;;;;;;;3.42;0.95;;;27.80;75.10;;;;;;10207951;29;20557;-65
2022/06/19 19:07:48;;;;;;;4.45;1.38;;;27.70;76.20;;;;;;10208468;28;20489;-65
2022/06/19 19:12:50;;;;;;;4.90;0.90;;;27.60;76.40;;;;;;10206837;29;20692;-65
2022/06/19 19:17:53;;;;;;;8.25;1.25;;;27.50;77.20;;;;;;10216441;29;20581;-65
2022/06/19 19:22:55;;;;;;;5.72;1.10;;;27.30;78.10;;;;;;10213903;29;20047;-65
2022/06/19 19:27:58;;;;;;;7.30;1.63;;;27.10;79.30;;;;;;10211273;29;20047;-64
2022/06/19 19:33:02;;;;;;;2.72;0.90;;;27.00;80.80;;;;;;10210453;29;20090;-65
2022/06/19 19:38:13;;;;;;;5.28;1.73;;;26.80;81.20;;;;;;10196547;29;20051;-65
2022/06/19 19:43:21;;;;;;;3.33;0.95;;;26.70;81.80;;;;;;10210752;29;20425;-65
2022/06/19 19:48:24;;;;;;;11.38;1.60;;;26.50;81.90;;;;;;10211649;28;20063;-65
2022/06/19 19:53:33;;;;;;;7.00;1.35;;;26.40;83.40;;;;;;10214896;29;20162;-65
2022/06/19 19:58:35;;;;;;;7.85;1.10;;;26.10;83.50;;;;;;10214807;28;20102;-64
2022/06/19 20:03:36;;;;;;;5.97;1.20;;;25.90;84.40;;;;;;10213753;28;20055;-60
2022/06/19 20:14:01;;;;;;;8.43;1.40;;;25.40;86.20;;;;;;10210689;29;20055;-59
2022/06/19 20:19:02;;;;;;;8.38;1.27;;;25.10;86.90;;;;;;10199162;29;20059;-59
2022/06/19 20:24:10;;;;;;;4.95;1.42;;;25.00;87.40;;;;;;10207041;28;20055;-59
2022/06/19 20:29:26;;;;;;;7.85;1.10;;;24.90;87.80;;;;;;10212933;29;20055;-59
2022/06/19 20:34:29;;;;;;;;;;;24.70;88.30;;;;;;10207774;29;20115;-60
2022/06/19 20:39:31;;;;;;;9.07;0.80;;;24.60;89.20;;;;;;10206733;29;19922;-60
2022/06/19 20:44:33;;;;;;;7.15;1.00;;;24.50;89.50;;;;;;10210128;29;20059;-60
2022/06/19 20:49:41;;;;;;;11.18;1.27;;;24.40;90.00;;;;;;10212382;29;20525;-60
2022/06/19 20:54:48;;;;;;;3.88;1.02;;;24.20;90.20;;;;;;10209086;29;20064;-60
2022/06/19 20:59:50;;;;;;;4.43;0.73;;;24.20;90.60;;;;;;10211872;28;20058;-60
2022/06/19 21:04:52;;;;;;;8.38;1.23;;;24.10;91.10;;;;;;10207760;29;20095;-60
2022/06/19 21:09:54;;;;;;;3.55;0.77;;;24.00;91.50;;;;;;10207267;29;20118;-60
2022/06/19 21:14:56;;;;;;;7.57;0.93;;;23.90;91.80;;;;;;10209920;29;20059;-60
2022/06/19 21:19:57;;;;;;;3.08;0.90;;;23.80;91.80;;;;;;10204059;29;20056;-59
2022/06/19 21:24:59;;;;;;;2.75;0.75;;;23.70;92.00;;;;;;10208100;29;20048;-59
2022/06/19 21:30:01;;;;;;;3.90;1.13;;;23.70;92.40;;;;;;10211895;29;20062;-59
2022/06/19 21:35:03;;;;;;;4.25;0.63;;;23.50;92.80;;;;;;10212086;28;20110;-60
2022/06/19 21:40:05;;;;;;;5.93;0.70;;;23.40;93.10;;;;;;10208661;29;20051;-60
2022/06/19 21:45:20;;;;;;;6.82;1.70;;;23.40;93.20;;;;;;10208524;29;20055;-59
2022/06/19 21:50:23;;;;;;;4.30;0.90;;;23.20;93.40;;;;;;10206512;29;20110;-60
2022/06/19 21:55:28;;;;;;;2.90;0.90;;;23.10;93.40;;;;;;10204973;29;20099;-58
2022/06/19 22:00:36;;;;;;;9.10;1.10;;;23.10;93.60;;;;;;10206168;28;20073;-59
2022/06/19 22:05:38;;;;;;;5.20;0.88;;;23.10;93.70;;;;;;10208743;29;20130;-59
2022/06/19 22:16:00;;;;;;;3.97;0.77;;;22.90;94.20;;;;;;10203150;29;20066;-60
2022/06/19 22:21:02;;;;;;;6.43;0.90;;;22.90;94.30;;;;;;10206649;29;20052;-61
2022/06/19 22:26:04;;;;;;;2.28;0.73;;;22.80;94.40;;;;;;10207981;28;20137;-61
2022/06/19 22:31:07;;;;;;;4.57;0.80;;;22.70;94.40;;;;;;10207789;28;20118;-60
2022/06/19 22:36:19;;;;;;;2.55;0.60;;;22.70;94.30;;;;;;10208494;28;20051;-61
2022/06/19 22:41:25;;;;;;;2.65;0.50;;;22.50;94.20;;;;;;10208764;28;20684;-60
2022/06/19 22:46:26;;;;;;;2.88;0.70;;;22.50;94.10;;;;;;10222709;28;20059;-60
2022/06/19 22:51:28;;;;;;;7.50;0.77;;;22.30;94.20;;;;;;10201069;29;20063;-61
2022/06/19 22:56:30;;;;;;;2.83;0.60;;;22.20;94.10;;;;;;10206968;28;20083;-60
2022/06/19 23:01:41;;;;;;;2.58;0.68;;;22.10;94.10;;;;;;10197301;29;20071;-61
2022/06/19 23:06:44;;;;;;;5.10;0.60;;;22.00;94.10;;;;;;10204292;29;20055;-60
2022/06/19 23:11:48;;;;;;;4.00;0.52;;;21.90;94.20;;;;;;10208747;29;20134;-62
2022/06/19 23:17:11;;;;;;;1.35;0.60;;;21.70;94.30;;;;;;10202463;29;20391;-61
2022/06/19 23:22:13;;;;;;;4.90;0.40;;;21.70;94.30;;;;;;10204202;29;20130;-62
2022/06/19 23:27:22;;;;;;;5.65;0.70;;;21.60;94.50;;;;;;10202454;29;20051;-62
2022/06/19 23:32:25;;;;;;;1.83;0.50;;;21.50;94.20;;;;;;10201286;29;20085;-62
2022/06/19 23:37:27;;;;;;;5.47;0.85;;;21.40;94.30;;;;;;10206141;29;20066;-61
2022/06/19 23:42:31;;;;;;;5.63;0.57;;;21.30;94.40;;;;;;10200394;29;20138;-61
2022/06/19 23:47:36;;;;;;;3.63;0.40;;;21.20;94.60;;;;;;10199295;29;20059;-61
2022/06/19 23:52:40;;;;;;;4.27;0.53;;;21.00;94.80;;;;;;10183682;29;20059;-60
2022/06/19 23:57:43;;;;;;;4.50;0.50;;;20.90;95.00;;;;;;10207581;28;20067;-61
